Terminal Aerodrome Forecast
Issued by NWS

Home | Current Version | Previous Version | Text Only | Print | Product List | Glossary On
Versions: 1 2 3 4 5 6 7 8 9 10 11 12 13
456
FTUS45 KABQ 251126
TAFSAF
TAF
KSAF 251126Z 2512/2612 36008KT P6SM SCT060
     FM251800 24010KT P6SM SCT080
     FM260200 02008KT P6SM SCT060
     FM260300 12015G25KT P6SM SCT030=

USA.gov is the U.S. government's official web portal to all federal, state and local government web resources and services.